createdAt,value
2022-10-17T00:03:51.289Z,16.53584
2022-10-17T00:08:52.928Z,16.3694
2022-10-17T00:13:54.440Z,16.32811
2022-10-17T00:18:56.074Z,15.6392
2022-10-17T00:23:57.704Z,15.30824
2022-10-17T00:28:59.370Z,15.18215
2022-10-17T00:34:01.354Z,15.56233
2022-10-17T00:39:02.997Z,14.9144
2022-10-17T00:44:04.630Z,14.62219
2022-10-17T00:49:06.197Z,14.51865
2022-10-17T00:54:07.825Z,14.69429
2022-10-17T00:59:09.441Z,14.20929
2022-10-17T01:04:11.012Z,13.89422
2022-10-17T01:09:12.615Z,13.65823
2022-10-17T01:14:14.261Z,13.62997
2022-10-17T01:19:15.872Z,13.44417
2022-10-17T01:24:17.530Z,13.43622
2022-10-17T01:29:19.128Z,12.74797
2022-10-17T01:34:20.782Z,13.15482
2022-10-17T01:39:22.365Z,13.10432
2022-10-17T01:44:23.968Z,12.2598
2022-10-17T01:49:25.603Z,12.19025
2022-10-17T01:54:27.174Z,11.72146
2022-10-17T01:59:28.741Z,12.34429
2022-10-17T02:04:30.330Z,11.70241
2022-10-17T02:09:31.899Z,11.52868
2022-10-17T02:14:33.460Z,11.77037
2022-10-17T02:19:35.077Z,11.45468
2022-10-17T02:24:36.703Z,10.2262
2022-10-17T02:29:38.269Z,11.2368
2022-10-17T02:34:39.898Z,11.24919
2022-10-17T02:39:41.520Z,11.15804
2022-10-17T02:44:43.170Z,11.00559
2022-10-17T02:49:44.798Z,10.54443
2022-10-17T02:54:46.461Z,10.68671
2022-10-17T02:59:48.069Z,10.65019
2022-10-17T03:04:49.728Z,10.63653
2022-10-17T03:09:51.348Z,10.36022
2022-10-17T03:14:52.972Z,10.52569
2022-10-17T03:19:54.697Z,10.31099
2022-10-17T03:24:56.298Z,9.8365
2022-10-17T03:29:57.889Z,10.05692
2022-10-17T03:34:59.494Z,9.72121
2022-10-17T03:40:01.119Z,9.58242
2022-10-17T03:45:02.765Z,9.6704
2022-10-17T03:50:04.445Z,9.56686
2022-10-17T03:55:06.104Z,9.12858
2022-10-17T04:00:07.840Z,9.12286
2022-10-17T04:05:09.466Z,9.23466
2022-10-17T04:10:11.079Z,9.11302
2022-10-17T04:15:12.793Z,9.02695
2022-10-17T04:20:14.440Z,8.93326
2022-10-17T04:25:16.050Z,8.79955
2022-10-17T04:30:17.628Z,8.88435
2022-10-17T04:35:19.229Z,8.90118
2022-10-17T04:40:20.863Z,8.81575
2022-10-17T04:45:22.469Z,8.52992
2022-10-17T04:50:24.102Z,8.44194
2022-10-17T04:55:25.702Z,8.51499
2022-10-17T05:00:27.344Z,8.46576
2022-10-17T05:05:28.948Z,8.29871
2022-10-17T05:10:30.570Z,8.03574
2022-10-17T05:15:32.207Z,8.29363
2022-10-17T05:20:33.800Z,7.94936
2022-10-17T05:25:35.404Z,7.98239
2022-10-17T05:30:37.764Z,7.86996
2022-10-17T05:35:39.480Z,7.7407
2022-10-17T05:40:41.132Z,7.64733
2022-10-17T05:45:42.751Z,7.66512
2022-10-17T05:50:44.380Z,7.78104
2022-10-17T05:55:45.950Z,7.45233
2022-10-17T06:00:47.517Z,7.39167
2022-10-17T06:05:49.163Z,7.61621
2022-10-17T06:10:50.810Z,7.44185
2022-10-17T06:15:52.474Z,7.4031
2022-10-17T06:20:54.086Z,7.2694
2022-10-17T06:25:55.712Z,7.16809
2022-10-17T06:30:57.332Z,7.25034
2022-10-17T06:35:58.966Z,6.93784
2022-10-17T06:41:00.541Z,7.09346
2022-10-17T06:46:02.178Z,6.95562
2022-10-17T06:51:03.873Z,6.89115
2022-10-17T06:56:05.456Z,6.62724
2022-10-17T07:06:08.670Z,6.78286
2022-10-17T07:11:10.299Z,6.70092
2022-10-17T07:16:11.899Z,6.15308
2022-10-17T07:21:13.541Z,6.24296
2022-10-17T07:26:15.174Z,6.19786
2022-10-17T07:31:16.793Z,6.06734
2022-10-17T07:36:18.361Z,6.33665
2022-10-17T07:41:21.785Z,6.19882
2022-10-17T07:46:23.759Z,6.38524
2022-10-17T07:51:25.321Z,5.90187
2022-10-17T07:56:26.968Z,6.06257
2022-10-17T08:01:28.563Z,6.10926
2022-10-17T08:06:30.162Z,5.86567
2022-10-17T08:11:31.793Z,5.77706
2022-10-17T08:16:33.539Z,5.89489
2022-10-17T08:21:35.138Z,6.00382
2022-10-17T08:26:40.640Z,6.06416
2022-10-17T08:31:47.494Z,5.61256
2022-10-17T08:36:50.093Z,5.58143
2022-10-17T08:41:51.693Z,5.44043
2022-10-17T08:46:53.366Z,5.33181
2022-10-17T08:51:54.951Z,5.31435
2022-10-17T08:56:56.698Z,5.49791
2022-10-17T09:01:58.284Z,5.53507
2022-10-17T09:07:00.078Z,5.50077
2022-10-17T09:12:01.775Z,5.36834
2022-10-17T09:17:03.378Z,5.20701
2022-10-17T09:22:04.979Z,5.09109
2022-10-17T09:27:06.551Z,5.04821
2022-10-17T09:32:08.127Z,5.24734
2022-10-17T09:37:09.741Z,5.11745
2022-10-17T09:42:11.315Z,5.09204
2022-10-17T09:47:12.885Z,4.62298
2022-10-17T09:52:14.486Z,5.05203
2022-10-17T09:57:16.081Z,4.95739
2022-10-17T10:02:17.683Z,5.02725
2022-10-17T10:07:19.310Z,5.01519
2022-10-17T10:12:20.888Z,5.09712
2022-10-17T10:17:22.523Z,4.67411
2022-10-17T10:22:24.095Z,4.78907
2022-10-17T10:27:25.697Z,4.54199
2022-10-17T10:32:27.666Z,4.5909
2022-10-17T10:37:29.888Z,4.69792
2022-10-17T10:42:31.670Z,4.76303
2022-10-17T10:47:33.524Z,4.53501
2022-10-17T10:52:35.241Z,4.38638
2022-10-17T10:57:36.812Z,4.39178
2022-10-17T11:02:38.401Z,4.29841
2022-10-17T11:07:40.047Z,3.98306
2022-10-17T11:12:41.754Z,4.27713
2022-10-17T11:17:43.394Z,4.347
2022-10-17T11:22:45.021Z,4.6414
2022-10-17T11:27:46.661Z,4.06944
2022-10-17T11:32:48.270Z,4.17392
2022-10-17T11:37:49.845Z,4.69221
2022-10-17T11:42:51.449Z,4.23331
2022-10-17T11:47:53.046Z,3.93606
2022-10-17T11:52:56.709Z,3.85031
2022-10-17T11:57:58.878Z,3.56735
2022-10-17T12:03:00.515Z,3.53877
2022-10-17T12:08:02.159Z,3.63023
2022-10-17T12:13:04.436Z,3.73249
2022-10-17T12:18:06.041Z,3.85126
2022-10-17T12:23:07.678Z,3.81823
2022-10-17T12:28:09.266Z,4.13994
2022-10-17T12:33:10.861Z,4.05928
2022-10-17T12:38:12.503Z,3.73185
2022-10-17T12:43:15.006Z,3.78679
2022-10-17T12:48:16.804Z,2.92712
2022-10-17T12:53:19.361Z,3.62102
2022-10-17T12:58:21.164Z,3.81125
2022-10-17T13:03:22.767Z,3.81728
2022-10-17T13:08:24.359Z,3.67024
2022-10-17T13:13:25.998Z,3.41237
2022-10-17T13:18:27.567Z,3.21961
2022-10-17T13:23:29.420Z,3.5429
2022-10-17T13:28:31.471Z,2.53492
2022-10-17T13:33:34.664Z,3.19261
2022-10-17T13:38:38.954Z,3.4905
2022-10-17T13:43:43.624Z,3.89922
2022-10-17T13:48:45.217Z,3.90874
2022-10-17T13:53:46.869Z,3.85095
2022-10-17T13:58:48.479Z,3.43333
2022-10-17T14:04:00.932Z,3.75663
2022-10-17T14:09:09.239Z,3.65849
2022-10-17T14:14:10.820Z,2.7912
2022-10-17T14:19:12.436Z,2.2923
2022-10-17T14:24:14.016Z,3.38983
2022-10-17T14:29:15.593Z,2.90743
2022-10-17T14:34:17.236Z,3.61086
2022-10-17T14:39:18.845Z,3.14498
2022-10-17T14:44:20.415Z,3.61118
2022-10-17T14:49:24.773Z,3.63341
2022-10-17T14:54:26.850Z,3.94685
2022-10-17T14:59:52.630Z,4.0723
2022-10-17T15:04:55.421Z,3.83888
2022-10-17T15:09:57.046Z,4.00878
2022-10-17T15:14:58.664Z,4.0507
2022-10-17T15:20:00.294Z,4.05388
2022-10-17T15:25:01.962Z,4.74207
2022-10-17T15:30:03.752Z,4.61948
2022-10-17T15:35:05.400Z,4.92404
2022-10-17T15:40:07.018Z,6.60024
2022-10-17T15:50:10.289Z,5.61002
2022-10-17T15:55:11.889Z,4.11771
2022-10-17T16:00:16.499Z,5.13269
2022-10-17T16:05:18.387Z,6.26932
2022-10-17T16:10:20.061Z,6.06734
2022-10-17T16:15:21.659Z,7.03597
2022-10-17T16:20:23.319Z,7.99986
2022-10-17T16:25:24.907Z,8.31268
2022-10-17T16:30:26.503Z,9.517
2022-10-17T16:35:31.682Z,10.4482
2022-10-17T16:40:36.645Z,10.55967
2022-10-17T16:45:38.232Z,11.06847
2022-10-17T16:50:39.831Z,9.81205
2022-10-17T16:55:41.461Z,10.30496
2022-10-17T17:00:43.115Z,9.14827
2022-10-17T17:05:44.801Z,9.50779
2022-10-17T17:10:46.493Z,8.9809
2022-10-17T17:15:48.130Z,10.86775
2022-10-17T17:20:49.746Z,9.82443
2022-10-17T17:25:51.393Z,9.49096
2022-10-17T17:30:52.994Z,9.7787
2022-10-17T17:35:54.594Z,11.29048
2022-10-17T17:40:56.198Z,10.41866
2022-10-17T17:45:57.803Z,9.82443
2022-10-17T17:50:59.396Z,11.69637
2022-10-17T17:56:01.129Z,12.44942
2022-10-17T18:01:02.741Z,13.06081
2022-10-17T18:06:04.421Z,13.81355
2022-10-17T18:11:06.025Z,12.93281
2022-10-17T18:16:07.617Z,13.97013
2022-10-17T18:21:09.425Z,12.92297
2022-10-17T18:26:11.085Z,13.18627
2022-10-17T18:31:12.673Z,13.62076
2022-10-17T18:36:14.266Z,14.74415
2022-10-17T18:41:15.848Z,14.47259
2022-10-17T18:46:17.449Z,15.00682
2022-10-17T18:51:19.037Z,15.51723
2022-10-17T18:56:20.647Z,14.38239
2022-10-17T19:01:22.448Z,15.2012
2022-10-17T19:06:24.226Z,14.89502
2022-10-17T19:11:25.835Z,16.14453
2022-10-17T19:16:27.440Z,16.59682
2022-10-17T19:21:29.040Z,16.55521
2022-10-17T19:26:30.691Z,16.92365
2022-10-17T19:31:32.410Z,15.72591
2022-10-17T19:36:34.085Z,16.3386
2022-10-17T19:41:35.701Z,17.97785
2022-10-17T19:46:37.330Z,17.86763
2022-10-17T19:51:38.912Z,17.37595
2022-10-17T19:56:40.531Z,17.16854
2022-10-17T20:01:42.204Z,18.08775
2022-10-17T20:06:43.831Z,19.07208
2022-10-17T20:11:45.426Z,18.29707
2022-10-17T20:16:47.131Z,18.72237
2022-10-17T20:21:48.784Z,19.16292
2022-10-17T20:26:50.383Z,18.43905
2022-10-17T20:31:52.027Z,18.54958
2022-10-17T20:36:53.647Z,17.68881
2022-10-17T20:41:55.273Z,16.53361
2022-10-17T20:47:02.086Z,16.73245
2022-10-17T20:52:04.268Z,16.42245
2022-10-17T20:57:05.955Z,16.40784
2022-10-17T21:02:07.583Z,17.04308
2022-10-17T21:07:09.182Z,16.7604
2022-10-17T21:12:10.826Z,17.02911
2022-10-17T21:17:12.478Z,18.12269
2022-10-17T21:22:14.101Z,16.50566
2022-10-17T21:27:15.702Z,17.12662
2022-10-17T21:32:31.932Z,18.103
2022-10-17T21:37:49.111Z,17.33371
2022-10-17T21:42:50.708Z,17.61417
2022-10-17T21:48:11.783Z,18.32851
2022-10-17T21:53:14.617Z,17.84953
2022-10-17T21:58:16.222Z,17.90321
2022-10-17T22:03:17.809Z,18.43365
2022-10-17T22:08:19.457Z,18.37997
2022-10-17T22:13:21.201Z,18.66901
2022-10-17T22:18:22.836Z,18.78526
2022-10-17T22:23:24.478Z,18.57277
2022-10-17T22:28:26.155Z,17.42264
2022-10-17T22:33:27.807Z,18.15159
2022-10-17T22:38:29.415Z,18.67346
2022-10-17T22:43:31.029Z,18.51528
2022-10-17T22:48:32.676Z,18.86149
2022-10-17T22:53:34.252Z,18.55307
2022-10-17T22:58:35.887Z,18.9625
2022-10-17T23:03:37.528Z,18.99077
2022-10-17T23:08:39.337Z,19.27155
2022-10-17T23:13:41.039Z,18.99744
2022-10-17T23:18:42.788Z,17.60432
2022-10-17T23:23:44.456Z,16.81249
2022-10-17T23:28:46.138Z,16.81058
2022-10-17T23:33:47.826Z,16.57935
2022-10-17T23:38:51.753Z,16.18995
2022-10-17T23:43:55.680Z,15.96793
2022-10-17T23:48:57.300Z,15.98921
2022-10-17T23:53:58.869Z,15.41655
2022-10-17T23:59:00.467Z,15.44259
